createdAt,value
2023-01-23T00:00:40.218Z,20.93
2023-01-23T00:01:35.141Z,21.86
2023-01-23T00:02:26.910Z,21.44
2023-01-23T00:03:19.008Z,22.28
2023-01-23T00:04:13.790Z,21.80
2023-01-23T00:05:06.129Z,21.93
2023-01-23T00:06:00.078Z,21.69
2023-01-23T00:06:52.259Z,22.72
2023-01-23T00:07:43.697Z,22.64
2023-01-23T00:08:35.983Z,20.95
2023-01-23T00:09:27.506Z,20.52
2023-01-23T00:10:19.476Z,21.37
2023-01-23T00:11:15.195Z,21.78
2023-01-23T00:12:06.938Z,21.53
2023-01-23T00:12:58.618Z,20.97
2023-01-23T00:13:50.837Z,21.28
2023-01-23T00:14:42.550Z,22.46
2023-01-23T00:15:34.528Z,21.29
2023-01-23T00:16:28.664Z,23.00
2023-01-23T00:17:20.173Z,22.57
2023-01-23T00:18:11.621Z,22.59
2023-01-23T00:19:03.124Z,21.56
2023-01-23T00:19:55.187Z,22.42
2023-01-23T00:20:46.711Z,22.61
2023-01-23T00:21:38.465Z,22.25
2023-01-23T00:22:30.425Z,22.55
2023-01-23T00:23:21.895Z,22.88
2023-01-23T00:24:13.484Z,22.33
2023-01-23T00:25:06.807Z,23.68
2023-01-23T00:26:06.320Z,22.97
2023-01-23T00:26:57.805Z,21.16
2023-01-23T00:27:49.361Z,21.87
2023-01-23T00:28:42.594Z,22.14
2023-01-23T00:29:34.090Z,22.68
2023-01-23T00:30:25.763Z,22.31
2023-01-23T00:31:21.106Z,22.93
2023-01-23T00:32:14.140Z,22.41
2023-01-23T00:33:05.684Z,22.15
2023-01-23T00:34:01.655Z,22.70
2023-01-23T00:34:53.328Z,22.21
2023-01-23T00:35:44.952Z,21.47
2023-01-23T00:36:38.848Z,22.11
2023-01-23T00:37:30.274Z,22.25
2023-01-23T00:38:21.813Z,22.45
2023-01-23T00:39:20.154Z,22.39
2023-01-23T00:40:13.231Z,22.27
2023-01-23T00:41:04.841Z,22.31
2023-01-23T00:41:57.198Z,22.37
2023-01-23T00:42:48.869Z,23.28
2023-01-23T00:43:42.239Z,21.51
2023-01-23T00:44:35.390Z,22.21
2023-01-23T00:45:27.073Z,22.36
2023-01-23T00:46:22.829Z,22.54
2023-01-23T00:47:14.366Z,22.86
2023-01-23T00:48:06.089Z,22.40
2023-01-23T00:48:57.877Z,22.33
2023-01-23T00:49:50.161Z,22.42
2023-01-23T00:50:41.704Z,22.60
2023-01-23T00:51:34.539Z,22.24
2023-01-23T00:52:27.596Z,22.76
2023-01-23T00:53:19.914Z,22.82
2023-01-23T00:54:11.660Z,22.25
2023-01-23T00:55:04.133Z,22.28
2023-01-23T00:55:55.702Z,22.96
2023-01-23T00:56:48.252Z,21.84
2023-01-23T00:57:39.975Z,22.13
2023-01-23T00:58:32.624Z,22.52
2023-01-23T00:59:24.624Z,22.53
2023-01-23T01:00:17.345Z,21.69
2023-01-23T01:01:09.723Z,21.66
2023-01-23T01:02:01.478Z,21.70
2023-01-23T01:02:53.057Z,22.22
2023-01-23T01:03:45.243Z,21.39
2023-01-23T01:04:37.177Z,22.77
2023-01-23T01:05:28.601Z,22.28
2023-01-23T01:06:20.297Z,22.15
2023-01-23T01:07:12.494Z,22.42
2023-01-23T01:08:05.405Z,21.47
2023-01-23T01:08:58.177Z,21.41
2023-01-23T01:09:51.427Z,21.94
2023-01-23T01:10:43.157Z,21.42
2023-01-23T01:11:34.613Z,20.82
2023-01-23T01:12:26.733Z,21.35
2023-01-23T01:13:21.198Z,21.07
2023-01-23T01:14:12.725Z,22.13
2023-01-23T01:15:05.727Z,21.81
2023-01-23T01:15:57.270Z,21.97
2023-01-23T01:16:48.924Z,21.56
2023-01-23T01:17:40.419Z,21.47
2023-01-23T01:18:32.717Z,20.88
2023-01-23T01:19:24.235Z,21.74
2023-01-23T01:20:21.500Z,21.77
2023-01-23T01:21:15.279Z,22.28
2023-01-23T01:22:06.962Z,21.90
2023-01-23T01:23:00.442Z,21.17
2023-01-23T01:23:51.944Z,21.81
2023-01-23T01:24:43.434Z,20.76
2023-01-23T01:25:35.449Z,22.08
2023-01-23T01:26:26.979Z,22.53
2023-01-23T01:27:18.692Z,23.14
2023-01-23T01:28:10.451Z,23.28
2023-01-23T01:29:02.404Z,21.54
2023-01-23T01:29:53.910Z,22.37
2023-01-23T01:30:45.549Z,22.23
2023-01-23T01:31:37.149Z,22.27
2023-01-23T01:32:28.654Z,21.78
2023-01-23T01:33:20.140Z,22.09
2023-01-23T01:34:13.858Z,21.68
2023-01-23T01:35:07.252Z,21.72
2023-01-23T01:35:58.926Z,22.28
2023-01-23T01:36:51.726Z,21.19
2023-01-23T01:37:43.835Z,20.88
2023-01-23T01:38:35.617Z,21.66
2023-01-23T01:39:27.162Z,21.05
2023-01-23T01:40:24.990Z,21.70
2023-01-23T01:41:17.430Z,21.68
2023-01-23T01:42:08.965Z,21.81
2023-01-23T01:43:04.847Z,22.80
2023-01-23T01:43:57.322Z,21.99
2023-01-23T01:45:01.437Z,20.99
2023-01-23T01:46:24.987Z,20.94
2023-01-23T01:47:16.449Z,21.58
2023-01-23T01:48:08.191Z,20.55
2023-01-23T01:49:07.465Z,21.75
2023-01-23T01:50:04.865Z,22.43
2023-01-23T01:50:59.353Z,21.87
2023-01-23T01:51:55.936Z,22.03
2023-01-23T01:52:48.336Z,22.06
2023-01-23T01:53:40.722Z,20.60
2023-01-23T01:54:32.342Z,21.57
2023-01-23T01:55:23.883Z,21.66
2023-01-23T01:56:18.567Z,21.62
2023-01-23T01:57:20.119Z,20.94
2023-01-23T01:58:13.931Z,22.66
2023-01-23T01:59:07.818Z,22.50
2023-01-23T02:00:18.134Z,22.59
2023-01-23T02:01:10.506Z,21.39
2023-01-23T02:02:14.513Z,21.09
2023-01-23T02:03:06.766Z,21.95
2023-01-23T02:04:00.356Z,22.03
2023-01-23T02:05:01.458Z,22.16
2023-01-23T02:05:53.361Z,20.96
2023-01-23T02:06:45.756Z,22.13
2023-01-23T02:07:46.933Z,22.14
2023-01-23T02:09:07.407Z,22.27
2023-01-23T02:10:03.905Z,20.80
2023-01-23T02:10:56.709Z,21.58
2023-01-23T02:11:49.904Z,21.84
2023-01-23T02:12:48.372Z,22.62
2023-01-23T02:13:42.825Z,21.85
2023-01-23T02:14:34.941Z,21.56
2023-01-23T02:15:27.499Z,22.20
2023-01-23T02:16:22.140Z,22.51
2023-01-23T02:17:13.821Z,21.19
2023-01-23T02:18:05.459Z,22.49
2023-01-23T02:19:07.235Z,22.82
2023-01-23T02:20:05.644Z,22.98
2023-01-23T02:21:03.589Z,21.38
2023-01-23T02:22:19.866Z,22.10
2023-01-23T02:24:10.001Z,22.16
2023-01-23T02:25:23.569Z,22.91
2023-01-23T02:26:25.080Z,21.21
2023-01-23T02:27:17.009Z,20.82
2023-01-23T02:28:10.702Z,22.07
2023-01-23T02:29:05.226Z,21.98
2023-01-23T02:30:06.049Z,22.31
2023-01-23T02:30:57.802Z,22.50
2023-01-23T02:31:52.794Z,22.45
2023-01-23T02:32:45.643Z,22.48
2023-01-23T02:33:37.229Z,21.80
2023-01-23T02:34:29.794Z,21.59
2023-01-23T02:35:30.472Z,22.09
2023-01-23T02:36:32.244Z,22.12
2023-01-23T02:37:31.824Z,22.62
2023-01-23T02:38:29.114Z,22.26
2023-01-23T02:39:21.488Z,23.11
2023-01-23T02:40:17.107Z,23.36
2023-01-23T02:41:13.735Z,21.07
2023-01-23T02:42:06.719Z,22.65
2023-01-23T02:43:21.323Z,22.65
2023-01-23T02:44:38.577Z,21.98
2023-01-23T02:45:31.829Z,21.98
2023-01-23T02:46:24.936Z,20.69
2023-01-23T02:47:16.414Z,20.34
2023-01-23T02:48:08.773Z,21.05
2023-01-23T02:49:02.473Z,22.70
2023-01-23T02:49:54.152Z,23.24
2023-01-23T02:50:46.572Z,22.13
2023-01-23T02:51:38.383Z,22.69
2023-01-23T02:52:31.857Z,22.26
2023-01-23T02:53:23.437Z,21.76
2023-01-23T02:54:17.431Z,22.57
2023-01-23T02:55:09.090Z,22.28
2023-01-23T02:56:00.928Z,22.44
2023-01-23T02:56:52.695Z,21.94
2023-01-23T02:57:47.244Z,22.11
2023-01-23T02:58:56.969Z,22.08
2023-01-23T03:00:07.411Z,21.78
2023-01-23T03:01:00.521Z,22.55
2023-01-23T03:01:53.375Z,22.28
2023-01-23T03:02:47.625Z,22.49
2023-01-23T03:03:42.164Z,22.51
2023-01-23T03:04:33.767Z,22.82
2023-01-23T03:05:25.506Z,22.41
2023-01-23T03:06:18.072Z,22.19
2023-01-23T03:07:13.851Z,22.39
2023-01-23T03:08:05.968Z,23.19
2023-01-23T03:08:59.768Z,22.53
2023-01-23T03:09:51.799Z,22.97
2023-01-23T03:10:43.297Z,21.96
2023-01-23T03:11:35.859Z,21.96
2023-01-23T03:12:28.941Z,20.86
2023-01-23T03:13:20.915Z,22.31
2023-01-23T03:14:16.315Z,22.10
2023-01-23T03:15:09.889Z,21.90
2023-01-23T03:16:01.504Z,22.27
2023-01-23T03:16:55.124Z,21.98
2023-01-23T03:17:49.717Z,22.05
2023-01-23T03:18:53.495Z,21.65
2023-01-23T03:19:45.949Z,21.97
2023-01-23T03:20:39.978Z,22.02
2023-01-23T03:21:33.201Z,21.64
2023-01-23T03:22:24.906Z,21.60
2023-01-23T03:23:16.923Z,22.90
2023-01-23T03:24:11.530Z,22.83
2023-01-23T03:25:03.091Z,22.03
2023-01-23T03:25:58.429Z,21.35
2023-01-23T03:26:53.702Z,22.69
2023-01-23T03:27:49.313Z,21.71
2023-01-23T03:28:59.390Z,21.95
2023-01-23T03:30:09.639Z,21.73
2023-01-23T03:31:01.602Z,20.73
2023-01-23T03:31:54.075Z,21.30
2023-01-23T03:32:46.742Z,21.56
2023-01-23T03:33:39.247Z,21.35
2023-01-23T03:34:32.117Z,21.80
2023-01-23T03:35:23.871Z,21.28
2023-01-23T03:36:18.205Z,20.91
2023-01-23T03:37:12.237Z,21.79
2023-01-23T03:38:04.931Z,21.60
2023-01-23T03:39:14.846Z,21.76
2023-01-23T03:40:25.816Z,21.13
2023-01-23T03:41:27.358Z,22.19
2023-01-23T03:42:23.956Z,23.23
2023-01-23T03:43:17.602Z,22.95
2023-01-23T03:44:13.266Z,22.71
2023-01-23T03:45:06.685Z,22.48
2023-01-23T03:46:00.439Z,22.41
2023-01-23T03:46:53.563Z,21.53
2023-01-23T03:47:45.080Z,21.64
2023-01-23T03:48:36.856Z,21.51
2023-01-23T03:49:29.425Z,21.03
2023-01-23T03:50:23.506Z,21.14
2023-01-23T03:51:15.192Z,21.36
2023-01-23T03:52:06.763Z,20.66
2023-01-23T03:52:58.379Z,21.57
2023-01-23T03:53:50.573Z,20.93
2023-01-23T03:54:42.254Z,21.69
2023-01-23T03:55:34.323Z,21.82
2023-01-23T03:56:25.954Z,21.32
2023-01-23T03:57:17.828Z,21.81
2023-01-23T03:58:11.971Z,21.42
2023-01-23T03:59:06.261Z,22.33
2023-01-23T03:59:58.517Z,21.28
2023-01-23T04:00:55.246Z,21.68
2023-01-23T04:01:47.893Z,22.83
2023-01-23T04:02:39.543Z,23.06
2023-01-23T04:03:31.357Z,22.74
2023-01-23T04:04:23.027Z,22.56
2023-01-23T04:05:15.013Z,22.32
2023-01-23T04:06:06.521Z,21.79
2023-01-23T04:06:57.975Z,22.02
2023-01-23T04:07:53.404Z,21.08
2023-01-23T04:08:45.013Z,22.82
2023-01-23T04:09:37.036Z,24.11
2023-01-23T04:10:29.188Z,22.99
2023-01-23T04:11:28.152Z,22.25
2023-01-23T04:12:20.613Z,21.66
2023-01-23T04:13:13.539Z,21.28
2023-01-23T04:14:05.571Z,21.31
2023-01-23T04:14:57.473Z,21.83
2023-01-23T04:15:49.127Z,22.32
2023-01-23T04:16:41.159Z,22.55
2023-01-23T04:17:33.538Z,22.55
2023-01-23T04:18:25.365Z,22.68
2023-01-23T04:19:20.961Z,21.99
2023-01-23T04:20:13.409Z,21.71
2023-01-23T04:21:06.944Z,21.67
2023-01-23T04:21:58.948Z,21.80
2023-01-23T04:22:50.563Z,22.48
2023-01-23T04:23:44.159Z,21.59
2023-01-23T04:24:35.808Z,21.80
2023-01-23T04:25:28.501Z,22.22
2023-01-23T04:26:20.125Z,23.83
2023-01-23T04:27:11.717Z,22.69
2023-01-23T04:28:03.294Z,22.32
2023-01-23T04:28:55.301Z,22.69
2023-01-23T04:29:49.997Z,22.56
2023-01-23T04:30:43.325Z,23.46
2023-01-23T04:31:47.049Z,21.21
2023-01-23T04:32:38.791Z,21.50
2023-01-23T04:33:30.453Z,22.94
2023-01-23T04:34:23.086Z,22.48
2023-01-23T04:35:17.122Z,22.85
2023-01-23T04:36:10.368Z,22.84
2023-01-23T04:37:01.856Z,23.49
2023-01-23T04:37:54.517Z,22.68
2023-01-23T04:38:46.895Z,22.48
2023-01-23T04:39:44.876Z,21.75
2023-01-23T04:40:36.702Z,21.83
2023-01-23T04:41:31.428Z,23.33
2023-01-23T04:42:27.388Z,24.74
2023-01-23T04:43:31.979Z,24.11
2023-01-23T04:44:24.951Z,24.05
2023-01-23T04:45:55.896Z,25.33
2023-01-23T04:47:04.231Z,24.42
2023-01-23T04:47:55.808Z,24.13
2023-01-23T04:48:48.907Z,23.52
2023-01-23T04:49:40.831Z,23.05
2023-01-23T04:50:33.646Z,22.99
2023-01-23T04:51:25.635Z,23.85
2023-01-23T04:52:17.149Z,23.71
2023-01-23T04:53:17.726Z,23.38
2023-01-23T04:54:10.623Z,22.51
2023-01-23T04:55:02.784Z,23.36
2023-01-23T04:55:54.576Z,23.81
2023-01-23T04:56:47.304Z,22.95
2023-01-23T04:57:40.862Z,23.12
2023-01-23T04:58:39.796Z,24.08
2023-01-23T04:59:33.292Z,23.39
2023-01-23T05:00:24.951Z,22.70
2023-01-23T05:01:23.745Z,23.59
2023-01-23T05:02:21.311Z,22.21
2023-01-23T05:03:14.231Z,23.29
2023-01-23T05:04:09.981Z,23.86
2023-01-23T05:05:02.465Z,23.65
2023-01-23T05:05:54.146Z,23.13
2023-01-23T05:06:46.467Z,22.57
2023-01-23T05:07:39.036Z,24.74
2023-01-23T05:08:33.771Z,24.80
2023-01-23T05:09:35.945Z,23.54
2023-01-23T05:10:27.697Z,23.03
2023-01-23T05:11:21.705Z,22.97
2023-01-23T05:12:13.602Z,22.25
2023-01-23T05:13:06.128Z,22.11
2023-01-23T05:13:57.880Z,23.35
2023-01-23T05:14:49.609Z,23.88
2023-01-23T05:15:42.667Z,24.42
2023-01-23T05:16:34.424Z,23.93
2023-01-23T05:17:52.001Z,23.36
2023-01-23T05:18:44.351Z,23.47
2023-01-23T05:19:36.191Z,23.22
2023-01-23T05:20:29.965Z,24.44
2023-01-23T05:21:25.682Z,24.35
2023-01-23T05:22:17.928Z,24.99
2023-01-23T05:23:09.696Z,25.30
2023-01-23T05:24:10.596Z,24.23
2023-01-23T05:25:02.882Z,25.61
2023-01-23T05:25:55.664Z,23.07
2023-01-23T05:26:48.632Z,23.92
2023-01-23T05:27:40.971Z,23.47
2023-01-23T05:28:32.775Z,23.41
2023-01-23T05:29:24.287Z,23.01
2023-01-23T05:30:25.143Z,22.93
2023-01-23T05:31:23.659Z,23.84
2023-01-23T05:32:35.151Z,23.92
2023-01-23T05:33:32.808Z,22.87
2023-01-23T05:34:24.330Z,22.55
2023-01-23T05:35:16.284Z,22.81
2023-01-23T05:36:08.842Z,21.60
2023-01-23T05:37:01.565Z,21.86
2023-01-23T05:37:54.559Z,21.08
2023-01-23T05:38:48.886Z,23.54
2023-01-23T05:39:40.756Z,23.43
2023-01-23T05:40:38.301Z,23.41
2023-01-23T05:41:38.666Z,23.11
2023-01-23T05:42:49.466Z,22.21
2023-01-23T05:44:07.190Z,22.52
2023-01-23T05:45:21.551Z,22.23
2023-01-23T05:46:14.237Z,22.28
2023-01-23T05:47:15.712Z,21.60
2023-01-23T05:48:08.485Z,22.51
2023-01-23T05:49:00.264Z,22.50
2023-01-23T05:49:51.865Z,22.09
2023-01-23T05:50:43.377Z,20.88
2023-01-23T05:51:36.067Z,21.85
2023-01-23T05:52:29.474Z,22.69
2023-01-23T05:53:21.007Z,21.73
2023-01-23T05:54:12.890Z,22.36
2023-01-23T05:55:08.749Z,21.84
2023-01-23T05:56:07.983Z,22.50
2023-01-23T05:57:07.089Z,23.28
2023-01-23T05:58:17.457Z,22.53
2023-01-23T05:59:16.063Z,22.40
2023-01-23T06:00:14.936Z,24.00
2023-01-23T06:01:06.786Z,22.79
2023-01-23T06:02:27.812Z,22.98
2023-01-23T06:03:55.339Z,22.48
2023-01-23T06:05:08.406Z,23.60
2023-01-23T06:06:23.016Z,22.85
2023-01-23T06:07:16.875Z,25.74
2023-01-23T06:08:08.498Z,23.82
2023-01-23T06:09:00.455Z,22.97
2023-01-23T06:09:52.163Z,22.41
2023-01-23T06:10:43.732Z,21.88
2023-01-23T06:11:35.698Z,23.33
2023-01-23T06:12:27.233Z,24.23
2023-01-23T06:13:19.643Z,22.93
2023-01-23T06:14:11.620Z,22.74
2023-01-23T06:15:04.123Z,24.60
2023-01-23T06:15:56.626Z,23.87
2023-01-23T06:16:49.604Z,24.86
2023-01-23T06:17:41.985Z,24.95
2023-01-23T06:18:33.569Z,26.67
2023-01-23T06:19:25.293Z,25.17
2023-01-23T06:20:17.023Z,24.68
2023-01-23T06:21:10.982Z,25.33
2023-01-23T06:22:04.161Z,23.93
2023-01-23T06:23:03.010Z,23.55
2023-01-23T06:23:54.558Z,23.72
2023-01-23T06:24:46.231Z,24.05
2023-01-23T06:25:38.406Z,24.28
2023-01-23T06:26:32.835Z,24.58
2023-01-23T06:27:24.443Z,24.56
2023-01-23T06:28:16.739Z,24.72
2023-01-23T06:29:09.338Z,24.09
2023-01-23T06:30:00.849Z,24.34
2023-01-23T06:30:52.490Z,24.32
2023-01-23T06:31:51.753Z,22.76
2023-01-23T06:32:45.287Z,23.63
2023-01-23T06:33:40.759Z,23.17
2023-01-23T06:34:36.737Z,23.76
2023-01-23T06:35:29.931Z,23.50
2023-01-23T06:36:21.466Z,23.33
2023-01-23T06:37:13.697Z,23.07
2023-01-23T06:38:08.361Z,22.95
2023-01-23T06:39:00.875Z,23.30
2023-01-23T06:39:58.775Z,23.12
2023-01-23T06:40:50.468Z,22.95
2023-01-23T06:41:52.849Z,22.60
2023-01-23T06:42:50.992Z,22.47
2023-01-23T06:43:42.819Z,22.23
2023-01-23T06:44:40.579Z,22.06
2023-01-23T06:45:32.307Z,22.39
2023-01-23T06:46:24.303Z,22.61
2023-01-23T06:47:19.370Z,21.94
2023-01-23T06:48:18.572Z,21.34
2023-01-23T06:49:10.577Z,22.11
2023-01-23T06:50:03.547Z,23.35
2023-01-23T06:51:01.471Z,23.59
2023-01-23T06:51:53.276Z,23.86
2023-01-23T06:52:48.542Z,23.18
2023-01-23T06:53:40.234Z,23.34
2023-01-23T06:54:32.350Z,24.04
2023-01-23T06:55:26.958Z,24.41
2023-01-23T06:56:18.769Z,25.06
2023-01-23T06:57:12.910Z,25.10
2023-01-23T06:58:04.534Z,24.36
2023-01-23T06:58:56.374Z,25.09
2023-01-23T06:59:53.101Z,25.59
2023-01-23T07:00:46.053Z,24.72
2023-01-23T07:01:56.598Z,23.99
2023-01-23T07:02:52.993Z,23.57
2023-01-23T07:03:45.109Z,23.75
2023-01-23T07:04:36.599Z,22.17
2023-01-23T07:05:28.552Z,22.10
2023-01-23T07:06:20.128Z,22.98
2023-01-23T07:07:12.500Z,22.79
2023-01-23T07:08:06.037Z,21.51
2023-01-23T07:08:57.640Z,20.92
2023-01-23T07:09:49.697Z,20.59
2023-01-23T07:10:44.700Z,21.02
2023-01-23T07:11:37.280Z,19.95
2023-01-23T07:12:30.616Z,20.50
2023-01-23T07:13:22.526Z,21.26
2023-01-23T07:14:15.393Z,19.26
2023-01-23T07:15:09.478Z,19.21
2023-01-23T07:16:05.578Z,20.97
2023-01-23T07:16:57.280Z,20.77
2023-01-23T07:17:49.913Z,20.19
2023-01-23T07:18:41.422Z,21.84
2023-01-23T07:19:34.562Z,20.78
2023-01-23T07:20:29.436Z,20.91
2023-01-23T07:21:23.117Z,20.77
2023-01-23T07:22:18.541Z,21.63
2023-01-23T07:23:10.336Z,21.15
2023-01-23T07:24:01.843Z,20.08
2023-01-23T07:24:53.553Z,19.53
2023-01-23T07:25:45.045Z,18.63
2023-01-23T07:26:36.677Z,17.70
2023-01-23T07:27:28.423Z,18.23
2023-01-23T07:28:19.878Z,17.80
2023-01-23T07:29:11.651Z,18.14
2023-01-23T07:30:06.004Z,18.39
2023-01-23T07:30:59.683Z,18.62
2023-01-23T07:31:51.394Z,18.42
2023-01-23T07:32:43.483Z,18.90
2023-01-23T07:33:35.017Z,18.79
2023-01-23T07:34:26.966Z,18.64
2023-01-23T07:35:18.547Z,18.66
2023-01-23T07:36:10.468Z,18.25
2023-01-23T07:37:02.431Z,17.54
2023-01-23T07:37:54.069Z,17.71
2023-01-23T07:38:45.585Z,17.48
2023-01-23T07:39:37.192Z,17.28
2023-01-23T07:40:29.160Z,16.99
2023-01-23T07:41:20.791Z,16.38
2023-01-23T07:42:12.284Z,17.50
2023-01-23T07:43:06.473Z,16.50
2023-01-23T07:43:57.979Z,17.07
2023-01-23T07:44:49.432Z,16.60
2023-01-23T07:45:41.033Z,16.83
2023-01-23T07:46:32.857Z,17.18
2023-01-23T07:47:24.683Z,16.42
2023-01-23T07:48:16.724Z,15.97
2023-01-23T07:49:08.190Z,16.90
2023-01-23T07:49:59.843Z,15.94
2023-01-23T07:50:51.451Z,16.37
2023-01-23T07:51:42.953Z,16.49
2023-01-23T07:52:34.668Z,16.78
2023-01-23T07:53:26.116Z,17.12
2023-01-23T07:54:17.819Z,16.69
2023-01-23T07:55:09.823Z,15.88
2023-01-23T07:56:05.143Z,16.21
2023-01-23T07:56:56.660Z,17.17
2023-01-23T07:57:48.331Z,16.10
2023-01-23T07:58:39.974Z,16.74
2023-01-23T07:59:31.444Z,16.55
2023-01-23T08:00:25.244Z,16.60
2023-01-23T08:01:19.198Z,17.45
2023-01-23T08:02:11.273Z,19.13
2023-01-23T08:03:03.138Z,18.90
2023-01-23T08:03:54.884Z,18.94
2023-01-23T08:04:46.345Z,18.04
2023-01-23T08:05:38.272Z,18.35
2023-01-23T08:06:29.762Z,19.03
2023-01-23T08:07:21.658Z,18.72
2023-01-23T08:08:14.121Z,18.93
2023-01-23T08:09:05.809Z,20.20
2023-01-23T08:09:57.613Z,19.18
2023-01-23T08:10:49.242Z,18.53
2023-01-23T08:11:41.042Z,18.25
2023-01-23T08:12:32.779Z,19.13
2023-01-23T08:13:24.302Z,20.46
2023-01-23T08:14:15.885Z,20.71
2023-01-23T08:15:08.622Z,20.16
2023-01-23T08:16:00.257Z,20.44
2023-01-23T08:16:53.282Z,20.93
2023-01-23T08:17:45.458Z,20.81
2023-01-23T08:18:37.026Z,20.48
2023-01-23T08:19:28.618Z,21.43
2023-01-23T08:20:20.439Z,21.46
2023-01-23T08:21:12.497Z,21.61
2023-01-23T08:22:04.984Z,21.85
2023-01-23T08:22:58.987Z,21.09
2023-01-23T08:23:51.077Z,20.71
2023-01-23T08:24:42.609Z,21.91
2023-01-23T08:25:35.018Z,21.55
2023-01-23T08:26:26.520Z,20.68
2023-01-23T08:27:18.026Z,20.24
2023-01-23T08:28:09.484Z,20.21
2023-01-23T08:29:01.252Z,20.44
2023-01-23T08:29:52.742Z,19.41
2023-01-23T08:30:44.218Z,20.11
2023-01-23T08:31:37.074Z,21.10
2023-01-23T08:32:28.894Z,20.29
2023-01-23T08:33:21.345Z,19.79
2023-01-23T08:34:12.859Z,20.24
2023-01-23T08:35:04.928Z,20.11
2023-01-23T08:35:58.588Z,19.53
2023-01-23T08:36:50.431Z,20.11
2023-01-23T08:37:42.393Z,20.34
2023-01-23T08:38:34.138Z,19.76
2023-01-23T08:39:25.690Z,19.59
2023-01-23T08:40:17.463Z,20.33
2023-01-23T08:41:11.683Z,19.17
2023-01-23T08:42:03.314Z,19.73
2023-01-23T08:42:57.239Z,19.70
2023-01-23T08:43:49.891Z,19.89
2023-01-23T08:44:41.419Z,19.86
2023-01-23T08:45:32.900Z,19.67
2023-01-23T08:46:24.538Z,19.15
2023-01-23T08:47:15.995Z,18.96
2023-01-23T08:48:09.192Z,20.19
2023-01-23T08:49:00.667Z,20.70
2023-01-23T08:49:52.197Z,21.87
2023-01-23T08:50:43.883Z,21.54
2023-01-23T08:51:35.520Z,21.45
2023-01-23T08:52:27.232Z,22.43
2023-01-23T08:53:18.704Z,21.85
2023-01-23T08:54:10.548Z,21.71
2023-01-23T08:55:02.152Z,22.77
2023-01-23T08:55:54.233Z,21.46
2023-01-23T08:56:45.847Z,21.36
2023-01-23T08:57:37.707Z,20.60
2023-01-23T08:58:29.440Z,20.34
2023-01-23T08:59:21.092Z,19.69
2023-01-23T09:00:13.206Z,20.96
2023-01-23T09:01:04.882Z,21.91
2023-01-23T09:01:56.451Z,22.05
2023-01-23T09:02:48.145Z,21.59
2023-01-23T09:03:39.994Z,21.39
2023-01-23T09:04:32.209Z,22.27
2023-01-23T09:05:23.667Z,22.01
2023-01-23T09:06:18.410Z,20.10
2023-01-23T09:07:09.924Z,21.04
2023-01-23T09:08:01.495Z,21.66
2023-01-23T09:08:53.032Z,21.59
2023-01-23T09:09:44.535Z,21.31
2023-01-23T09:10:36.394Z,21.24
2023-01-23T09:11:27.827Z,22.94
2023-01-23T09:12:19.716Z,21.95
2023-01-23T09:13:11.747Z,21.84
2023-01-23T09:14:03.189Z,20.91
2023-01-23T09:14:54.698Z,20.25
2023-01-23T09:15:46.154Z,21.09
2023-01-23T09:16:39.116Z,20.48
2023-01-23T09:17:30.624Z,20.74
2023-01-23T09:18:22.985Z,20.99
2023-01-23T09:19:15.708Z,20.91
2023-01-23T09:20:08.708Z,19.84
2023-01-23T09:21:00.349Z,18.52
2023-01-23T09:21:57.181Z,19.72
2023-01-23T09:22:48.654Z,19.59
2023-01-23T09:23:40.325Z,18.74
2023-01-23T09:24:31.812Z,18.52
2023-01-23T09:25:23.555Z,18.74
2023-01-23T09:26:15.605Z,19.25
2023-01-23T09:27:07.496Z,19.54
2023-01-23T09:27:59.162Z,19.63
2023-01-23T09:28:51.083Z,19.07
2023-01-23T09:29:42.770Z,18.31
2023-01-23T09:30:35.230Z,19.95
2023-01-23T09:31:26.765Z,19.35
2023-01-23T09:32:18.337Z,18.85
2023-01-23T09:33:10.015Z,19.33
2023-01-23T09:34:03.260Z,20.59
2023-01-23T09:34:55.157Z,20.11
2023-01-23T09:35:51.573Z,20.22
2023-01-23T09:36:43.799Z,20.93
2023-01-23T09:37:58.541Z,20.49
2023-01-23T09:38:50.683Z,20.33
2023-01-23T09:39:44.227Z,19.44
2023-01-23T09:40:44.853Z,19.28
2023-01-23T09:41:39.082Z,20.48
2023-01-23T09:42:34.620Z,19.47
2023-01-23T09:43:26.111Z,19.59
2023-01-23T09:44:35.894Z,20.08
2023-01-23T09:45:29.612Z,19.16
2023-01-23T09:46:39.354Z,20.11
2023-01-23T09:47:53.298Z,20.42
2023-01-23T09:48:46.737Z,19.53
2023-01-23T09:49:46.438Z,19.99
2023-01-23T09:50:52.295Z,19.98
2023-01-23T09:52:03.437Z,20.65
2023-01-23T09:53:11.998Z,19.83
2023-01-23T09:54:34.665Z,19.71
2023-01-23T09:55:57.954Z,19.32
2023-01-23T09:56:52.431Z,19.67
2023-01-23T09:57:55.210Z,19.45
2023-01-23T09:59:07.527Z,18.70
2023-01-23T10:00:13.720Z,19.32
2023-01-23T10:01:13.458Z,18.70
2023-01-23T10:02:20.066Z,18.42
2023-01-23T10:03:15.955Z,19.03
2023-01-23T10:04:11.945Z,18.37
2023-01-23T10:05:03.845Z,19.84
2023-01-23T10:06:16.629Z,18.83
2023-01-23T10:07:26.243Z,19.60
2023-01-23T10:08:42.798Z,19.55
2023-01-23T10:10:08.202Z,19.38
2023-01-23T10:11:10.720Z,19.47
2023-01-23T10:12:32.792Z,18.40
2023-01-23T10:13:59.393Z,19.76
2023-01-23T10:15:05.830Z,19.79
2023-01-23T10:16:12.621Z,18.88
2023-01-23T10:17:13.695Z,19.69
2023-01-23T10:18:32.781Z,18.96
2023-01-23T10:20:03.583Z,18.78
2023-01-23T10:20:55.186Z,18.50
2023-01-23T10:22:04.351Z,18.54
2023-01-23T10:23:07.537Z,18.04
2023-01-23T10:24:26.477Z,17.67
2023-01-23T10:25:24.289Z,17.84
2023-01-23T10:26:23.424Z,19.49
2023-01-23T10:27:20.328Z,18.68
2023-01-23T10:28:26.650Z,18.88
2023-01-23T10:29:44.996Z,18.48
2023-01-23T10:30:38.671Z,18.87
2023-01-23T10:31:48.426Z,17.79
2023-01-23T10:32:51.023Z,17.16
2023-01-23T10:33:56.386Z,17.49
2023-01-23T10:35:02.386Z,17.17
2023-01-23T10:36:04.578Z,17.44
2023-01-23T10:37:31.545Z,17.52
2023-01-23T10:38:35.372Z,18.05
2023-01-23T10:39:35.181Z,17.54
2023-01-23T10:40:46.927Z,17.52
2023-01-23T10:41:39.157Z,17.82
2023-01-23T10:42:30.798Z,18.13
2023-01-23T10:43:22.620Z,17.44
2023-01-23T10:44:19.955Z,17.56
2023-01-23T10:45:19.685Z,17.69
2023-01-23T10:46:18.059Z,16.94
2023-01-23T10:47:21.225Z,16.91
2023-01-23T10:48:45.615Z,17.06
2023-01-23T10:49:45.307Z,18.29
2023-01-23T10:50:39.453Z,17.75
2023-01-23T10:51:45.925Z,16.77
2023-01-23T10:52:46.037Z,17.31
2023-01-23T10:53:37.533Z,17.37
2023-01-23T10:54:32.656Z,16.56
2023-01-23T10:55:29.879Z,17.11
2023-01-23T10:56:21.771Z,16.48
2023-01-23T10:57:13.181Z,16.40
2023-01-23T10:58:06.884Z,16.12
2023-01-23T10:59:02.195Z,16.29
2023-01-23T11:00:20.353Z,15.67
2023-01-23T11:01:34.062Z,16.76
2023-01-23T11:02:34.880Z,18.42
2023-01-23T11:03:32.921Z,16.88
2023-01-23T11:04:28.377Z,17.27
2023-01-23T11:05:52.171Z,17.13
2023-01-23T11:06:45.294Z,15.14
2023-01-23T11:07:38.263Z,16.60
2023-01-23T11:08:38.528Z,15.24
2023-01-23T11:09:31.272Z,16.38
2023-01-23T11:10:23.632Z,14.87
2023-01-23T11:11:15.236Z,15.14
2023-01-23T11:12:14.494Z,15.30
2023-01-23T11:13:30.791Z,14.80
2023-01-23T11:14:24.200Z,14.74
2023-01-23T11:15:26.362Z,14.65
2023-01-23T11:16:22.917Z,14.75
2023-01-23T11:17:16.995Z,15.21
2023-01-23T11:18:32.519Z,14.97
2023-01-23T11:19:24.176Z,15.37
2023-01-23T11:20:37.113Z,15.37
2023-01-23T11:21:33.945Z,15.04
2023-01-23T11:22:39.076Z,15.01
2023-01-23T11:23:33.684Z,14.08
2023-01-23T11:24:38.616Z,14.85
2023-01-23T11:25:41.216Z,14.78
2023-01-23T11:26:35.201Z,15.08
2023-01-23T11:27:31.920Z,14.62
2023-01-23T11:28:36.355Z,14.63
2023-01-23T11:29:30.340Z,14.83
2023-01-23T11:30:39.505Z,14.11
2023-01-23T11:31:32.155Z,15.42
2023-01-23T11:32:25.139Z,14.65
2023-01-23T11:33:25.563Z,14.18
2023-01-23T11:34:24.548Z,14.88
2023-01-23T11:35:24.406Z,13.82
2023-01-23T11:36:19.425Z,13.86
2023-01-23T11:37:31.323Z,14.57
2023-01-23T11:38:30.844Z,15.01
2023-01-23T11:39:56.055Z,14.96
2023-01-23T11:40:48.099Z,14.32
2023-01-23T11:41:41.256Z,15.02
2023-01-23T11:42:40.227Z,14.33
2023-01-23T11:43:31.925Z,14.97
2023-01-23T11:44:24.548Z,14.18
2023-01-23T11:45:39.095Z,14.25
2023-01-23T11:46:52.658Z,14.08
2023-01-23T11:47:58.909Z,14.47
2023-01-23T11:49:02.702Z,13.23
2023-01-23T11:50:31.509Z,13.58
2023-01-23T11:51:35.326Z,11.96
2023-01-23T11:52:38.693Z,12.99
2023-01-23T11:54:00.477Z,13.47
2023-01-23T11:55:11.571Z,12.66
2023-01-23T11:56:57.487Z,13.41
2023-01-23T11:58:27.103Z,11.80